»·PEaware :: WAT3512 KTUS-KFLG

WAT3512 :: KTUS-KFLG

FLIGHT INFORMATION

Flight Status: Arrived
Operator:
Walker Air Transport
More flights by this operator :: More flights under this callsign
Pilot: Richard A. (43314)
Aircraft: EMBRAER PHENOM 300
(E55P)
More flights by this aircraft type
Origin: KTUS Tucson Intl
United States
Destination: KFLG Flagstaff Pulliam
United States
More flights between these airports :: More routes between these airports
Route: BURRO4 BBALL PXR V327 FLG
File this flight plan on PilotEdge
Remarks: RMK / SIMBRIEF
Altitude:
(Current/Filed)
34,000ft
Speed:
(Current/Filed)
451kts
Departed: 15-Sep-23 07:57 PM
Arrived: 15-Sep-23 08:47 PM
Distance/Time
Traveled:
185nm/0:50
Distance/Time
To Go:
Arrived

Flight Plot

Page will automatically refresh every two minutes.

Flight plan parsing failed; only flown route is shown


Map Options




Map Legend


Flown Route
Filed Route
Departure Airport
Arrival Airport
Navaid (VOR, NDB)
Fix

Horizontal Profiles

Position Reports

Time Latitude Longitude Heading Altitude Ground
Speed
15-Sep-23 19:25 32.129890 -110.940478 89 2574ft 0kts
15-Sep-23 19:26 32.129890 -110.940478 89 2574ft 0kts
15-Sep-23 19:27 32.129890 -110.940478 89 2574ft 0kts
15-Sep-23 19:28 32.129890 -110.940478 89 2574ft 0kts
15-Sep-23 19:29 32.129890 -110.940478 89 2574ft 0kts
15-Sep-23 19:30 32.129890 -110.940478 89 2574ft 0kts
15-Sep-23 19:31 32.129890 -110.940478 89 2574ft 0kts
15-Sep-23 19:32 32.129890 -110.940478 89 2574ft 0kts
15-Sep-23 19:33 32.129890 -110.940478 89 2574ft 0kts
15-Sep-23 19:34 32.129890 -110.940478 89 2574ft 0kts
15-Sep-23 19:35 32.129890 -110.940478 89 2574ft 0kts
15-Sep-23 19:36 32.129890 -110.940478 89 2574ft 0kts
15-Sep-23 19:37 32.129890 -110.940478 89 2574ft 0kts
15-Sep-23 19:38 32.129890 -110.940478 89 2574ft 0kts
15-Sep-23 19:39 32.129890 -110.940478 89 2574ft 0kts
15-Sep-23 19:40 32.129890 -110.940478 89 2574ft 0kts
15-Sep-23 19:41 32.129890 -110.940478 89 2574ft 0kts
15-Sep-23 19:42 32.129890 -110.940478 89 2574ft 0kts
15-Sep-23 19:43 32.129890 -110.940478 89 2574ft 0kts
15-Sep-23 19:44 32.129890 -110.940478 89 2574ft 0kts
15-Sep-23 19:45 32.129890 -110.940478 89 2574ft 0kts
15-Sep-23 19:45 32.129890 -110.940478 89 2574ft 0kts
15-Sep-23 19:47 32.129890 -110.940474 87 2574ft 0kts
15-Sep-23 19:48 32.129879 -110.941293 242 2571ft 9kts
15-Sep-23 19:49 32.128036 -110.943739 225 2569ft 13kts
15-Sep-23 19:50 32.125130 -110.947113 206 2572ft 5kts
15-Sep-23 19:50 32.124750 -110.947447 63 2572ft 4kts
15-Sep-23 19:51 32.123938 -110.946944 225 2575ft 3kts
15-Sep-23 19:52 32.123935 -110.946948 225 2575ft 0kts
15-Sep-23 19:54 32.123935 -110.946948 225 2575ft 0kts
15-Sep-23 19:55 32.123917 -110.946969 225 2575ft 1kts
15-Sep-23 19:55 32.122970 -110.947493 124 2575ft 5kts
15-Sep-23 19:56 32.104442 -110.925241 137 3734ft 171kts
15-Sep-23 19:57 32.069658 -110.884151 136 7959ft 182kts
15-Sep-23 19:58 32.012656 -110.860709 207 11225ft 258kts
15-Sep-23 20:00 31.968906 -110.943010 234 16539ft 264kts
15-Sep-23 20:00 31.976064 -111.014782 305 19306ft 295kts
15-Sep-23 20:01 32.030405 -111.098336 299 21190ft 356kts
15-Sep-23 20:02 32.084777 -111.196069 321 24483ft 363kts
15-Sep-23 20:03 32.190110 -111.233046 340 25064ft 431kts
15-Sep-23 20:04 32.305502 -111.270828 340 25045ft 424kts
15-Sep-23 20:05 32.419299 -111.308243 340 25040ft 423kts
15-Sep-23 20:06 32.533063 -111.345739 340 25032ft 423kts
15-Sep-23 20:07 32.646450 -111.383198 340 24995ft 422kts
15-Sep-23 20:08 32.760249 -111.420929 340 24963ft 430kts
15-Sep-23 20:09 32.874726 -111.458966 340 24963ft 422kts
15-Sep-23 20:10 32.983502 -111.506708 314 24969ft 408kts
15-Sep-23 20:11 33.069506 -111.595360 316 24934ft 408kts
15-Sep-23 20:12 33.155384 -111.683525 315 24931ft 405kts
15-Sep-23 20:13 33.241066 -111.771707 315 24907ft 406kts
15-Sep-23 20:14 33.326555 -111.859916 315 24916ft 407kts
15-Sep-23 20:15 33.412333 -111.948317 318 24904ft 406kts
15-Sep-23 20:16 33.526250 -111.949402 7 24892ft 435kts
15-Sep-23 20:17 33.644682 -111.921763 6 24899ft 432kts
15-Sep-23 20:18 33.763134 -111.894533 6 24892ft 432kts
15-Sep-23 20:19 33.881026 -111.867340 5 24892ft 432kts
15-Sep-23 20:20 33.999709 -111.839910 5 24904ft 431kts
15-Sep-23 20:21 34.116879 -111.812747 6 24514ft 414kts
15-Sep-23 20:22 34.225735 -111.790324 0 23607ft 381kts
15-Sep-23 20:23 34.331270 -111.777266 1 22672ft 364kts
15-Sep-23 20:24 34.431322 -111.764717 1 21758ft 353kts
15-Sep-23 20:25 34.529418 -111.752418 2 20327ft 358kts
15-Sep-23 20:26 34.627366 -111.740051 2 18631ft 342kts
15-Sep-23 20:27 34.718730 -111.728535 3 16926ft 322kts
15-Sep-23 20:28 34.806806 -111.717403 3 15259ft 317kts
15-Sep-23 20:29 34.895512 -111.706198 5 13615ft 321kts
15-Sep-23 20:30 34.980641 -111.688439 37 12301ft 295kts
15-Sep-23 20:31 35.037436 -111.628430 40 12312ft 260kts
15-Sep-23 20:32 35.092696 -111.569742 40 12318ft 265kts
15-Sep-23 20:33 35.149464 -111.509122 40 12315ft 274kts
15-Sep-23 20:34 35.207003 -111.447068 40 12309ft 267kts
15-Sep-23 20:35 35.259752 -111.389854 40 12306ft 238kts
15-Sep-23 20:36 35.307932 -111.337310 40 12309ft 225kts
15-Sep-23 20:37 35.355257 -111.360130 307 12319ft 207kts
15-Sep-23 20:38 35.344137 -111.422389 234 12318ft 190kts
15-Sep-23 20:39 35.309009 -111.470023 227 11504ft 179kts
15-Sep-23 20:40 35.274961 -111.510962 225 10572ft 164kts
15-Sep-23 20:41 35.244981 -111.546574 226 9679ft 126kts
15-Sep-23 20:42 35.220626 -111.575475 226 9053ft 124kts
15-Sep-23 20:43 35.195940 -111.604741 226 8385ft 125kts
15-Sep-23 20:44 35.171654 -111.634021 226 7710ft 120kts
15-Sep-23 20:45 35.147412 -111.661643 221 7079ft 117kts
15-Sep-23 20:46 35.135962 -111.674523 290 7006ft 6kts
15-Sep-23 20:47 35.135984 -111.676812 255 7005ft 0kts
15-Sep-23 20:48 35.135980 -111.676832 254 7005ft 0kts
15-Sep-23 20:49 35.135980 -111.676832 254 7005ft 0kts

Navigation Log

Ident Type
Flight plan parsing failed, navigation log unavailable